createdAt,value
2023-02-14T00:01:29.286Z,103018.19
2023-02-14T00:04:00.493Z,103019.50
2023-02-14T00:06:28.578Z,103017.75
2023-02-14T00:08:56.149Z,103016.25
2023-02-14T00:11:23.749Z,103014.94
2023-02-14T00:14:05.325Z,103014.94
2023-02-14T00:16:34.241Z,103016.88
2023-02-14T00:19:04.404Z,103013.25
2023-02-14T00:21:32.964Z,103015.81
2023-02-14T00:24:00.597Z,103009.56
2023-02-14T00:26:28.858Z,103014.94
2023-02-14T00:28:56.436Z,103009.78
2023-02-14T00:31:24.110Z,103016.03
2023-02-14T00:33:53.109Z,103016.34
2023-02-14T00:36:21.011Z,103014.97
2023-02-14T00:38:48.763Z,103011.22
2023-02-14T00:41:19.228Z,103016.03
2023-02-14T00:43:47.795Z,103005.94
2023-02-14T00:46:17.011Z,103015.72
2023-02-14T00:48:45.154Z,103018.28
2023-02-14T00:51:14.923Z,103018.94
2023-02-14T00:53:42.815Z,103019.50
2023-02-14T00:56:10.488Z,103022.50
2023-02-14T00:58:38.115Z,103029.16
2023-02-14T01:01:06.210Z,103025.59
2023-02-14T01:03:34.313Z,103025.41
2023-02-14T01:06:02.569Z,103023.25
2023-02-14T01:08:32.670Z,103028.28
2023-02-14T01:11:08.056Z,103026.13
2023-02-14T01:13:35.667Z,103027.00
2023-02-14T01:16:07.626Z,103026.38
2023-02-14T01:18:37.294Z,103016.03
2023-02-14T01:21:17.191Z,103014.75
2023-02-14T01:23:48.547Z,103019.59
2023-02-14T01:26:17.541Z,103031.09
2023-02-14T01:28:45.967Z,103027.22
2023-02-14T01:31:16.927Z,103013.78
2023-02-14T01:33:46.892Z,103023.03
2023-02-14T01:36:18.864Z,103023.22
2023-02-14T01:38:48.065Z,103014.63
2023-02-14T01:41:15.693Z,103023.03
2023-02-14T01:43:58.780Z,103019.03
2023-02-14T01:46:28.786Z,103027.63
2023-02-14T01:49:02.056Z,103024.94
2023-02-14T01:51:30.658Z,103025.91
2023-02-14T01:54:00.689Z,103026.25
2023-02-14T01:56:31.951Z,103020.00
2023-02-14T01:59:03.527Z,103022.78
2023-02-14T02:01:32.278Z,103020.44
2023-02-14T02:04:04.065Z,103023.97
2023-02-14T02:06:35.051Z,103014.00
2023-02-14T02:09:11.905Z,103011.31
2023-02-14T02:11:39.774Z,103010.09
2023-02-14T02:14:07.444Z,103012.91
2023-02-14T02:16:52.194Z,103008.06
2023-02-14T02:19:53.884Z,103003.56
2023-02-14T02:22:43.983Z,103009.16
2023-02-14T02:25:26.071Z,102998.06
2023-02-14T02:28:19.490Z,102998.19
2023-02-14T02:31:04.540Z,102998.41
2023-02-14T02:34:11.064Z,102980.97
2023-02-14T02:36:57.456Z,102974.66
2023-02-14T02:39:41.862Z,102974.75
2023-02-14T02:42:24.783Z,102966.94
2023-02-14T02:45:01.689Z,102959.50
2023-02-14T02:47:35.586Z,102956.28
2023-02-14T02:50:29.421Z,102957.59
2023-02-14T02:53:07.810Z,102956.94
2023-02-14T02:56:00.640Z,102960.81
2023-02-14T02:58:35.901Z,102956.28
2023-02-14T03:01:10.364Z,102958.84
2023-02-14T03:03:57.640Z,102954.78
2023-02-14T03:06:25.312Z,102953.81
2023-02-14T03:08:54.567Z,102947.81
2023-02-14T03:11:22.496Z,102958.66
2023-02-14T03:14:13.509Z,102958.88
2023-02-14T03:16:52.586Z,102955.41
2023-02-14T03:19:55.733Z,102953.81
2023-02-14T03:22:35.457Z,102952.84
2023-02-14T03:25:18.299Z,102954.66
2023-02-14T03:27:50.726Z,102957.00
2023-02-14T03:30:26.635Z,102951.53
2023-02-14T03:33:02.186Z,102941.94
2023-02-14T03:35:36.913Z,102941.41
2023-02-14T03:38:09.876Z,102946.97
2023-02-14T03:40:43.324Z,102940.22
2023-02-14T03:43:13.982Z,102938.53
2023-02-14T03:45:47.705Z,102935.00
2023-02-14T03:48:17.523Z,102936.63
2023-02-14T03:50:48.676Z,102934.84
2023-02-14T03:53:21.277Z,102928.75
2023-02-14T03:55:55.935Z,102927.31
2023-02-14T03:58:27.573Z,102938.63
2023-02-14T04:01:01.593Z,102931.19
2023-02-14T04:03:30.952Z,102928.50
2023-02-14T04:05:59.421Z,102925.31
2023-02-14T04:08:30.095Z,102922.63
2023-02-14T04:11:02.624Z,102934.94
2023-02-14T04:13:30.365Z,102926.81
2023-02-14T04:15:58.024Z,102926.53
2023-02-14T04:18:42.948Z,102921.19
2023-02-14T04:21:11.215Z,102924.81
2023-02-14T04:23:38.954Z,102925.22
2023-02-14T04:26:07.972Z,102918.25
2023-02-14T04:28:35.787Z,102918.84
2023-02-14T04:31:04.947Z,102913.69
2023-02-14T04:33:32.874Z,102921.75
2023-02-14T04:36:01.088Z,102918.38
2023-02-14T04:38:28.826Z,102907.00
2023-02-14T04:40:56.445Z,102905.66
2023-02-14T04:43:25.412Z,102901.06
2023-02-14T04:45:53.048Z,102904.13
2023-02-14T04:48:21.344Z,102902.78
2023-02-14T04:50:52.567Z,102900.66
2023-02-14T04:53:20.559Z,102905.84
2023-02-14T04:55:49.649Z,102901.84
2023-02-14T04:58:17.473Z,102901.94
2023-02-14T05:00:46.463Z,102903.75
2023-02-14T05:03:14.103Z,102906.25
2023-02-14T05:05:41.699Z,102902.00
2023-02-14T05:08:09.290Z,102904.63
2023-02-14T05:10:36.980Z,102906.06
2023-02-14T05:13:04.558Z,102903.84
2023-02-14T05:15:32.226Z,102898.59
2023-02-14T05:18:02.831Z,102897.44
2023-02-14T05:20:30.830Z,102898.69
2023-02-14T05:22:59.928Z,102890.47
2023-02-14T05:25:27.630Z,102889.88
2023-02-14T05:27:55.155Z,102897.44
2023-02-14T05:30:26.536Z,102891.50
2023-02-14T05:32:55.147Z,102891.88
2023-02-14T05:35:24.209Z,102899.75
2023-02-14T05:37:51.845Z,102889.41
2023-02-14T05:42:49.456Z,102889.63
2023-02-14T05:45:17.173Z,102891.88
2023-02-14T05:47:44.781Z,102891.50
2023-02-14T05:50:12.691Z,102891.03
2023-02-14T05:52:41.662Z,102898.13
2023-02-14T05:55:10.063Z,102896.59
2023-02-14T05:57:37.783Z,102896.97
2023-02-14T06:00:06.453Z,102896.19
2023-02-14T06:02:34.265Z,102897.44
2023-02-14T06:05:01.957Z,102899.38
2023-02-14T06:07:29.572Z,102899.75
2023-02-14T06:09:58.581Z,102906.72
2023-02-14T06:12:26.237Z,102903.00
2023-02-14T06:14:54.403Z,102901.72
2023-02-14T06:17:22.037Z,102902.03
2023-02-14T06:19:49.620Z,102899.47
2023-02-14T06:22:17.274Z,102898.56
2023-02-14T06:24:44.882Z,102902.88
2023-02-14T06:27:16.576Z,102900.09
2023-02-14T06:29:44.166Z,102897.13
2023-02-14T06:32:11.935Z,102895.72
2023-02-14T06:34:40.902Z,102903.44
2023-02-14T06:37:09.194Z,102900.88
2023-02-14T06:39:37.447Z,102903.25
2023-02-14T06:42:05.234Z,102908.53
2023-02-14T06:44:34.199Z,102913.34
2023-02-14T06:47:01.827Z,102908.34
2023-02-14T06:49:29.447Z,102908.53
2023-02-14T06:51:57.107Z,102911.78
2023-02-14T06:54:24.686Z,102910.09
2023-02-14T06:56:52.391Z,102910.81
2023-02-14T06:59:20.008Z,102917.69
2023-02-14T07:01:49.041Z,102909.84
2023-02-14T07:04:17.672Z,102907.75
2023-02-14T07:06:45.762Z,102905.88
2023-02-14T07:09:16.681Z,102913.22
2023-02-14T07:11:45.078Z,102915.13
2023-02-14T07:14:13.555Z,102921.84
2023-02-14T07:16:41.456Z,102918.28
2023-02-14T07:19:10.383Z,102915.81
2023-02-14T07:21:38.108Z,102917.59
2023-02-14T07:24:05.875Z,102919.06
2023-02-14T07:26:35.777Z,102914.19
2023-02-14T07:29:03.615Z,102915.78
2023-02-14T07:31:31.274Z,102907.75
2023-02-14T07:34:00.699Z,102913.13
2023-02-14T07:36:29.726Z,102917.72
2023-02-14T07:38:58.440Z,102907.69
2023-02-14T07:41:26.151Z,102911.78
2023-02-14T07:43:53.709Z,102906.25
2023-02-14T07:46:21.352Z,102905.84
2023-02-14T07:48:51.617Z,102908.34
2023-02-14T07:51:19.287Z,102906.25
2023-02-14T07:53:48.367Z,102902.00
2023-02-14T07:56:15.973Z,102898.22
2023-02-14T07:58:43.546Z,102891.97
2023-02-14T08:01:13.211Z,102897.81
2023-02-14T08:03:40.817Z,102898.28
2023-02-14T08:06:08.508Z,102903.25
2023-02-14T08:08:36.190Z,102900.94
2023-02-14T08:11:05.238Z,102896.59
2023-02-14T08:13:33.004Z,102894.09
2023-02-14T08:16:06.767Z,102900.00
2023-02-14T08:18:37.211Z,102896.72
2023-02-14T08:21:06.120Z,102902.44
2023-02-14T08:23:33.780Z,102906.13
2023-02-14T08:26:01.580Z,102892.75
2023-02-14T08:28:32.497Z,102900.19
2023-02-14T08:31:00.636Z,102889.66
2023-02-14T08:33:28.669Z,102893.63
2023-02-14T08:35:56.252Z,102886.78
2023-02-14T08:38:24.831Z,102894.31
2023-02-14T08:40:54.700Z,102890.22
2023-02-14T08:43:22.306Z,102888.72
2023-02-14T08:45:54.860Z,102891.63
2023-02-14T08:48:23.457Z,102885.50
2023-02-14T08:50:51.215Z,102889.03
2023-02-14T08:53:18.979Z,102891.19
2023-02-14T08:55:46.572Z,102892.03
2023-02-14T08:58:14.255Z,102887.59
2023-02-14T09:00:42.235Z,102885.47
2023-02-14T09:03:11.487Z,102884.06
2023-02-14T09:05:39.221Z,102880.06
2023-02-14T09:08:07.594Z,102877.66
2023-02-14T09:10:35.195Z,102886.03
2023-02-14T09:13:02.853Z,102875.47
2023-02-14T09:15:31.522Z,102881.91
2023-02-14T09:17:59.192Z,102875.09
2023-02-14T09:20:28.137Z,102880.75
2023-02-14T09:22:56.384Z,102875.16
2023-02-14T09:25:23.935Z,102875.63
2023-02-14T09:27:53.948Z,102883.25
2023-02-14T09:30:21.659Z,102877.53
2023-02-14T09:32:49.245Z,102883.06
2023-02-14T09:35:34.629Z,102879.16
2023-02-14T09:38:19.071Z,102867.94
2023-02-14T09:40:47.354Z,102868.19
2023-02-14T09:43:23.026Z,102869.56
2023-02-14T09:45:54.201Z,102867.16
2023-02-14T09:48:28.256Z,102866.66
2023-02-14T09:51:00.450Z,102870.34
2023-02-14T09:53:33.128Z,102856.28
2023-02-14T09:56:10.074Z,102861.19
2023-02-14T09:58:46.454Z,102847.47
2023-02-14T10:01:19.177Z,102851.50
2023-02-14T10:04:16.828Z,102853.59
2023-02-14T10:06:49.820Z,102852.09
2023-02-14T10:09:39.754Z,102853.59
2023-02-14T10:12:15.315Z,102855.78
2023-02-14T10:14:44.210Z,102853.81
2023-02-14T10:17:17.608Z,102852.19
2023-02-14T10:19:49.786Z,102856.38
2023-02-14T10:22:19.842Z,102860.53
2023-02-14T10:24:57.336Z,102852.94
2023-02-14T10:27:33.231Z,102849.00
2023-02-14T10:30:02.679Z,102841.63
2023-02-14T10:32:38.597Z,102842.97
2023-02-14T10:35:16.234Z,102848.13
2023-02-14T10:37:56.974Z,102839.63
2023-02-14T10:40:49.758Z,102837.53
2023-02-14T10:43:30.107Z,102841.81
2023-02-14T10:46:06.763Z,102840.09
2023-02-14T10:48:45.446Z,102832.50
2023-02-14T10:51:17.496Z,102826.59
2023-02-14T10:54:02.794Z,102831.81
2023-02-14T10:56:39.473Z,102819.78
2023-02-14T10:59:18.216Z,102822.47
2023-02-14T11:01:47.018Z,102816.66
2023-02-14T11:04:17.921Z,102804.06
2023-02-14T11:06:48.347Z,102805.03
2023-02-14T11:09:16.029Z,102804.75
2023-02-14T11:11:49.712Z,102808.19
2023-02-14T11:14:23.306Z,102796.28
2023-02-14T11:16:52.539Z,102799.81
2023-02-14T11:19:26.740Z,102795.16
2023-02-14T11:21:56.382Z,102792.97
2023-02-14T11:24:28.913Z,102783.13
2023-02-14T11:27:00.768Z,102779.69
2023-02-14T11:29:30.785Z,102774.91
2023-02-14T11:32:08.317Z,102778.06
2023-02-14T11:34:39.944Z,102772.25
2023-02-14T11:37:25.843Z,102772.25
2023-02-14T11:39:57.737Z,102778.41
2023-02-14T11:42:43.588Z,102768.19
2023-02-14T11:45:31.270Z,102777.75
2023-02-14T11:48:22.055Z,102770.34
2023-02-14T11:50:58.237Z,102768.38
2023-02-14T11:53:28.490Z,102764.41
2023-02-14T11:55:58.471Z,102765.84
2023-02-14T11:58:34.490Z,102765.72
2023-02-14T12:01:03.010Z,102760.75
2023-02-14T12:03:39.292Z,102760.38
2023-02-14T12:06:07.487Z,102758.38
2023-02-14T12:08:38.788Z,102755.28
2023-02-14T12:11:18.735Z,102748.59
2023-02-14T12:13:54.855Z,102741.13
2023-02-14T12:16:28.293Z,102740.72
2023-02-14T12:19:00.638Z,102737.19
2023-02-14T12:21:43.720Z,102722.41
2023-02-14T12:24:23.772Z,102726.56
2023-02-14T12:26:58.411Z,102719.84
2023-02-14T12:29:33.123Z,102711.41
2023-02-14T12:32:03.915Z,102707.94
2023-02-14T12:34:31.583Z,102709.59
2023-02-14T12:37:13.941Z,102706.53
2023-02-14T12:39:52.393Z,102701.75
2023-02-14T12:42:34.303Z,102687.72
2023-02-14T12:45:13.575Z,102685.63
2023-02-14T12:47:50.966Z,102689.50
2023-02-14T12:50:30.119Z,102681.56
2023-02-14T12:53:15.507Z,102679.31
2023-02-14T12:55:56.087Z,102670.63
2023-02-14T12:58:37.530Z,102663.63
2023-02-14T13:01:38.518Z,102662.38
2023-02-14T13:04:43.782Z,102662.69
2023-02-14T13:07:23.689Z,102658.00
2023-02-14T13:09:59.396Z,102660.09
2023-02-14T13:12:36.208Z,102651.84
2023-02-14T13:15:20.318Z,102649.34
2023-02-14T13:17:55.962Z,102642.06
2023-02-14T13:20:39.197Z,102643.09
2023-02-14T13:23:14.145Z,102641.47
2023-02-14T13:25:48.857Z,102637.06
2023-02-14T13:28:17.765Z,102641.53
2023-02-14T13:30:45.632Z,102628.25
2023-02-14T13:33:27.122Z,102627.53
2023-02-14T13:35:58.198Z,102623.72
2023-02-14T13:38:28.307Z,102618.97
2023-02-14T13:40:58.372Z,102615.31
2023-02-14T13:43:56.639Z,102610.47
2023-02-14T13:46:47.643Z,102607.19
2023-02-14T13:49:27.069Z,102603.69
2023-02-14T13:51:57.207Z,102594.47
2023-02-14T13:54:46.746Z,102605.81
2023-02-14T13:57:32.025Z,102601.47
2023-02-14T14:00:39.636Z,102610.09
2023-02-14T14:03:13.060Z,102599.72
2023-02-14T14:06:04.683Z,102595.06
2023-02-14T14:08:43.975Z,102599.44
2023-02-14T14:11:27.905Z,102590.59
2023-02-14T14:14:01.574Z,102590.22
2023-02-14T14:16:33.209Z,102591.06
2023-02-14T14:19:03.319Z,102588.97
2023-02-14T14:21:34.638Z,102593.84
2023-02-14T14:24:13.231Z,102586.88
2023-02-14T14:26:43.885Z,102588.38
2023-02-14T14:29:17.415Z,102584.94
2023-02-14T14:31:46.804Z,102588.81
2023-02-14T14:34:19.620Z,102601.69
2023-02-14T14:36:49.096Z,102594.16
2023-02-14T14:39:27.892Z,102589.75
2023-02-14T14:41:56.033Z,102583.47
2023-02-14T14:44:25.569Z,102577.34
2023-02-14T14:46:53.531Z,102574.50
2023-02-14T14:49:22.451Z,102580.94
2023-02-14T14:51:51.445Z,102577.34
2023-02-14T14:54:21.245Z,102571.56
2023-02-14T14:56:51.864Z,102574.41
2023-02-14T14:59:28.935Z,102572.00
2023-02-14T15:01:56.940Z,102575.16
2023-02-14T15:04:28.542Z,102579.91
2023-02-14T15:06:58.706Z,102573.78
2023-02-14T15:09:33.495Z,102578.19
2023-02-14T15:12:20.449Z,102562.09
2023-02-14T15:14:54.528Z,102558.66
2023-02-14T15:17:25.988Z,102561.00
2023-02-14T15:19:56.871Z,102559.59
2023-02-14T15:22:29.504Z,102552.63
2023-02-14T15:24:58.739Z,102557.78
2023-02-14T15:27:27.988Z,102557.50
2023-02-14T15:29:58.196Z,102553.25
2023-02-14T15:32:29.120Z,102549.81
2023-02-14T15:34:57.236Z,102552.00
2023-02-14T15:37:26.890Z,102555.72
2023-02-14T15:39:57.088Z,102557.56
2023-02-14T15:42:29.217Z,102560.41
2023-02-14T15:45:17.171Z,102551.88
2023-02-14T15:47:47.788Z,102549.09
2023-02-14T15:50:17.639Z,102554.22
2023-02-14T15:52:48.882Z,102554.66
2023-02-14T15:55:19.456Z,102546.53
2023-02-14T15:57:54.447Z,102549.97
2023-02-14T16:00:23.922Z,102540.44
2023-02-14T16:02:55.366Z,102555.44
2023-02-14T16:05:25.692Z,102557.72
2023-02-14T16:08:00.003Z,102557.22
2023-02-14T16:10:29.333Z,102543.81
2023-02-14T16:13:00.108Z,102552.09
2023-02-14T16:15:31.705Z,102549.69
2023-02-14T16:18:00.873Z,102542.31
2023-02-14T16:20:40.001Z,102549.00
2023-02-14T16:23:23.766Z,102548.44
2023-02-14T16:25:51.907Z,102544.91
2023-02-14T16:28:20.028Z,102541.63
2023-02-14T16:30:53.665Z,102538.03
2023-02-14T16:33:23.262Z,102543.16
2023-02-14T16:35:51.697Z,102552.03
2023-02-14T16:38:22.357Z,102541.31
2023-02-14T16:40:52.097Z,102546.03
2023-02-14T16:43:21.530Z,102539.66
2023-02-14T16:45:50.283Z,102537.94
2023-02-14T16:48:17.997Z,102538.00
2023-02-14T16:50:46.545Z,102541.31
2023-02-14T16:53:25.818Z,102540.31
2023-02-14T16:55:55.718Z,102552.97
2023-02-14T16:58:28.698Z,102557.09
2023-02-14T17:00:58.493Z,102562.94
2023-02-14T17:03:26.422Z,102565.88
2023-02-14T17:05:55.400Z,102558.38
2023-02-14T17:08:26.818Z,102554.81
2023-02-14T17:10:56.644Z,102554.66
2023-02-14T17:13:27.716Z,102553.06
2023-02-14T17:15:56.315Z,102553.25
2023-02-14T17:18:25.399Z,102555.66
2023-02-14T17:20:53.295Z,102552.22
2023-02-14T17:23:21.440Z,102554.19
2023-02-14T17:25:50.955Z,102564.16
2023-02-14T17:28:18.717Z,102562.72
2023-02-14T17:30:47.446Z,102563.16
2023-02-14T17:33:15.148Z,102559.88
2023-02-14T17:35:42.756Z,102556.34
2023-02-14T17:38:10.594Z,102552.94
2023-02-14T17:40:38.262Z,102557.31
2023-02-14T17:43:07.491Z,102553.34
2023-02-14T17:45:35.277Z,102559.47
2023-02-14T17:48:03.127Z,102559.88
2023-02-14T17:50:31.146Z,102556.19
2023-02-14T17:52:58.863Z,102556.75
2023-02-14T17:55:26.490Z,102557.03
2023-02-14T17:57:54.095Z,102552.47
2023-02-14T18:00:24.346Z,102551.63
2023-02-14T18:02:52.163Z,102554.47
2023-02-14T18:05:20.097Z,102546.59
2023-02-14T18:07:47.694Z,102543.16
2023-02-14T18:10:15.363Z,102537.66
2023-02-14T18:12:43.867Z,102544.03
2023-02-14T18:15:11.557Z,102544.13
2023-02-14T18:17:40.575Z,102535.59
2023-02-14T18:20:09.214Z,102548.47
2023-02-14T18:22:37.041Z,102543.50
2023-02-14T18:25:05.115Z,102537.53
2023-02-14T18:27:32.919Z,102536.81
2023-02-14T18:30:00.616Z,102536.06
2023-02-14T18:32:28.476Z,102536.59
2023-02-14T18:34:57.417Z,102531.06
2023-02-14T18:37:25.118Z,102531.16
2023-02-14T18:39:52.769Z,102528.94
2023-02-14T18:42:20.402Z,102522.94
2023-02-14T18:44:48.120Z,102521.19
2023-02-14T18:47:16.358Z,102525.59
2023-02-14T18:49:43.968Z,102521.19
2023-02-14T18:52:12.981Z,102523.81
2023-02-14T18:54:40.841Z,102527.25
2023-02-14T18:57:09.095Z,102523.72
2023-02-14T18:59:37.268Z,102517.13
2023-02-14T19:02:04.979Z,102517.41
2023-02-14T19:04:32.621Z,102515.41
2023-02-14T19:07:00.336Z,102505.28
2023-02-14T19:09:29.502Z,102498.72
2023-02-14T19:11:59.935Z,102506.22
2023-02-14T19:14:27.814Z,102501.38
2023-02-14T19:16:55.456Z,102501.69
2023-02-14T19:19:24.280Z,102498.53
2023-02-14T19:21:53.214Z,102489.22
2023-02-14T19:24:21.767Z,102495.44
2023-02-14T19:26:51.139Z,102492.19
2023-02-14T19:29:21.001Z,102494.84
2023-02-14T19:31:50.745Z,102495.69
2023-02-14T19:34:20.894Z,102484.31
2023-02-14T19:36:50.296Z,102488.34
2023-02-14T19:39:18.945Z,102479.25
2023-02-14T19:41:47.621Z,102483.69
2023-02-14T19:44:18.824Z,102480.19
2023-02-14T19:46:48.622Z,102479.19
2023-02-14T19:49:18.351Z,102490.44
2023-02-14T19:51:47.337Z,102487.09
2023-02-14T19:54:15.425Z,102477.31
2023-02-14T19:56:45.023Z,102488.25
2023-02-14T19:59:19.595Z,102476.72
2023-02-14T20:01:50.158Z,102477.31
2023-02-14T20:04:20.655Z,102475.41
2023-02-14T20:06:49.832Z,102477.34
2023-02-14T20:09:21.573Z,102480.19
2023-02-14T20:11:51.204Z,102473.16
2023-02-14T20:14:21.575Z,102473.72
2023-02-14T20:16:50.769Z,102468.09
2023-02-14T20:19:20.539Z,102477.16
2023-02-14T20:21:50.327Z,102474.47
2023-02-14T20:24:20.766Z,102468.22
2023-02-14T20:26:49.884Z,102467.50
2023-02-14T20:29:18.603Z,102462.03
2023-02-14T20:31:52.057Z,102459.94
2023-02-14T20:34:20.673Z,102461.75
2023-02-14T20:36:52.938Z,102453.59
2023-02-14T20:39:23.302Z,102453.34
2023-02-14T20:41:50.934Z,102455.63
2023-02-14T20:44:21.401Z,102450.38
2023-02-14T20:46:53.004Z,102451.53
2023-02-14T20:49:22.125Z,102460.81
2023-02-14T20:51:51.092Z,102451.50
2023-02-14T20:54:19.508Z,102454.00
2023-02-14T20:56:49.521Z,102446.81
2023-02-14T20:59:19.221Z,102457.22
2023-02-14T21:01:46.924Z,102450.03
2023-02-14T21:04:16.670Z,102452.38
2023-02-14T21:06:44.254Z,102453.28
2023-02-14T21:09:11.891Z,102451.56
2023-02-14T21:11:39.506Z,102441.78
2023-02-14T21:14:07.188Z,102439.34
2023-02-14T21:16:34.779Z,102444.41
2023-02-14T21:19:02.418Z,102441.09
2023-02-14T21:21:34.790Z,102451.13
2023-02-14T21:24:04.831Z,102437.38
2023-02-14T21:26:32.878Z,102444.53
2023-02-14T21:29:01.482Z,102442.97
2023-02-14T21:31:29.625Z,102446.25
2023-02-14T21:33:59.295Z,102442.69
2023-02-14T21:36:29.043Z,102434.50
2023-02-14T21:38:59.249Z,102435.03
2023-02-14T21:41:29.290Z,102427.72
2023-02-14T21:43:58.241Z,102427.72
2023-02-14T21:46:27.450Z,102430.41
2023-02-14T21:49:14.011Z,102421.72
2023-02-14T21:51:42.002Z,102418.69
2023-02-14T21:54:11.661Z,102415.13
2023-02-14T21:56:41.193Z,102414.28
2023-02-14T21:59:09.919Z,102411.59
2023-02-14T22:01:40.150Z,102405.97
2023-02-14T22:04:09.662Z,102408.91
2023-02-14T22:06:38.261Z,102411.34
2023-02-14T22:09:07.013Z,102406.59
2023-02-14T22:11:36.524Z,102402.78
2023-02-14T22:14:04.519Z,102400.94
2023-02-14T22:16:32.411Z,102396.44
2023-02-14T22:19:00.045Z,102388.88
2023-02-14T22:21:28.396Z,102388.00
2023-02-14T22:23:56.378Z,102387.41
2023-02-14T22:26:25.715Z,102392.88
2023-02-14T22:28:58.953Z,102394.84
2023-02-14T22:31:28.547Z,102395.88
2023-02-14T22:33:56.788Z,102389.25
2023-02-14T22:36:25.087Z,102401.34
2023-02-14T22:38:52.808Z,102399.16
2023-02-14T22:41:22.590Z,102395.97
2023-02-14T22:43:50.694Z,102397.41
2023-02-14T22:46:21.365Z,102384.25
2023-02-14T22:48:50.480Z,102382.75
2023-02-14T22:51:21.095Z,102380.06
2023-02-14T22:53:49.582Z,102388.13
2023-02-14T22:56:20.534Z,102381.28
2023-02-14T22:58:48.567Z,102379.69
2023-02-14T23:01:18.081Z,102380.06
2023-02-14T23:03:47.814Z,102374.44
2023-02-14T23:06:16.721Z,102375.56
2023-02-14T23:08:55.337Z,102383.00
2023-02-14T23:11:25.300Z,102378.84
2023-02-14T23:14:10.986Z,102378.25
2023-02-14T23:17:07.521Z,102372.50
2023-02-14T23:19:58.820Z,102369.31
2023-02-14T23:22:28.787Z,102366.38
2023-02-14T23:24:58.295Z,102374.44
2023-02-14T23:27:30.105Z,102365.91
2023-02-14T23:29:57.792Z,102364.66
2023-02-14T23:32:25.541Z,102362.94
2023-02-14T23:34:54.574Z,102357.22
2023-02-14T23:37:22.229Z,102362.72
2023-02-14T23:39:50.714Z,102354.56
2023-02-14T23:42:18.509Z,102362.03
2023-02-14T23:44:46.908Z,102363.63
2023-02-14T23:47:15.809Z,102364.84
2023-02-14T23:49:45.706Z,102361.78
2023-02-14T23:52:14.917Z,102355.72
2023-02-14T23:54:43.646Z,102353.63
2023-02-14T23:57:11.311Z,102351.44
2023-02-14T23:59:39.294Z,102351.31
